sensor_id;sensor_type;location;lat;lon;timestamp;P1;durP1;ratioP1;P2;durP2;ratioP2
51020;SDS011;38907;45.562;8.856;2022-10-15T00:02:17;61.95;;;37.22;;
51020;SDS011;38907;45.562;8.856;2022-10-15T00:07:19;54.80;;;35.08;;
51020;SDS011;38907;45.562;8.856;2022-10-15T00:12:22;59.53;;;36.60;;
51020;SDS011;38907;45.562;8.856;2022-10-15T00:22:26;58.15;;;34.63;;
51020;SDS011;38907;45.562;8.856;2022-10-15T00:27:29;57.10;;;35.72;;
51020;SDS011;38907;45.562;8.856;2022-10-15T00:37:32;60.17;;;35.53;;
51020;SDS011;38907;45.562;8.856;2022-10-15T00:42:36;51.88;;;34.35;;
51020;SDS011;38907;45.562;8.856;2022-10-15T00:52:42;59.20;;;35.40;;
51020;SDS011;38907;45.562;8.856;2022-10-15T00:57:52;57.17;;;36.42;;
51020;SDS011;38907;45.562;8.856;2022-10-15T01:02:55;54.53;;;35.65;;
51020;SDS011;38907;45.562;8.856;2022-10-15T01:07:57;55.28;;;34.17;;
51020;SDS011;38907;45.562;8.856;2022-10-15T01:13:03;53.33;;;32.60;;
51020;SDS011;38907;45.562;8.856;2022-10-15T01:18:14;50.28;;;32.92;;
51020;SDS011;38907;45.562;8.856;2022-10-15T01:23:32;55.33;;;33.75;;
51020;SDS011;38907;45.562;8.856;2022-10-15T01:29:02;55.47;;;34.72;;
51020;SDS011;38907;45.562;8.856;2022-10-15T01:34:12;52.88;;;33.22;;
51020;SDS011;38907;45.562;8.856;2022-10-15T01:39:20;50.90;;;32.22;;
51020;SDS011;38907;45.562;8.856;2022-10-15T01:44:28;48.85;;;31.98;;
51020;SDS011;38907;45.562;8.856;2022-10-15T01:49:37;56.40;;;33.50;;
51020;SDS011;38907;45.562;8.856;2022-10-15T01:54:43;54.78;;;33.90;;
51020;SDS011;38907;45.562;8.856;2022-10-15T01:59:47;59.28;;;35.40;;
51020;SDS011;38907;45.562;8.856;2022-10-15T02:04:51;59.20;;;34.42;;
51020;SDS011;38907;45.562;8.856;2022-10-15T02:09:55;59.10;;;35.17;;
51020;SDS011;38907;45.562;8.856;2022-10-15T02:15:01;48.95;;;32.95;;
51020;SDS011;38907;45.562;8.856;2022-10-15T02:20:10;58.15;;;32.70;;
51020;SDS011;38907;45.562;8.856;2022-10-15T02:25:16;49.90;;;32.92;;
51020;SDS011;38907;45.562;8.856;2022-10-15T02:30:21;48.90;;;31.65;;
51020;SDS011;38907;45.562;8.856;2022-10-15T02:35:26;56.85;;;33.30;;
51020;SDS011;38907;45.562;8.856;2022-10-15T02:40:28;54.88;;;34.20;;
51020;SDS011;38907;45.562;8.856;2022-10-15T02:45:34;63.08;;;32.30;;
51020;SDS011;38907;45.562;8.856;2022-10-15T02:50:37;58.42;;;33.63;;
51020;SDS011;38907;45.562;8.856;2022-10-15T02:55:39;49.42;;;31.73;;
51020;SDS011;38907;45.562;8.856;2022-10-15T03:00:41;50.03;;;30.48;;
51020;SDS011;38907;45.562;8.856;2022-10-15T03:05:44;49.38;;;31.85;;
51020;SDS011;38907;45.562;8.856;2022-10-15T03:15:48;55.15;;;30.40;;
51020;SDS011;38907;45.562;8.856;2022-10-15T03:20:55;52.40;;;33.05;;
51020;SDS011;38907;45.562;8.856;2022-10-15T03:25:57;60.92;;;33.78;;
51020;SDS011;38907;45.562;8.856;2022-10-15T03:30:59;53.33;;;33.60;;
51020;SDS011;38907;45.562;8.856;2022-10-15T03:36:02;53.75;;;32.92;;
51020;SDS011;38907;45.562;8.856;2022-10-15T03:41:04;55.72;;;33.70;;
51020;SDS011;38907;45.562;8.856;2022-10-15T03:46:06;53.42;;;32.47;;
51020;SDS011;38907;45.562;8.856;2022-10-15T03:51:09;52.10;;;32.35;;
51020;SDS011;38907;45.562;8.856;2022-10-15T03:56:11;48.25;;;30.50;;
51020;SDS011;38907;45.562;8.856;2022-10-15T04:01:14;53.20;;;33.35;;
51020;SDS011;38907;45.562;8.856;2022-10-15T04:06:18;48.40;;;30.98;;
51020;SDS011;38907;45.562;8.856;2022-10-15T04:11:20;46.85;;;29.85;;
51020;SDS011;38907;45.562;8.856;2022-10-15T04:16:22;45.08;;;28.55;;
51020;SDS011;38907;45.562;8.856;2022-10-15T04:21:25;47.22;;;28.10;;
51020;SDS011;38907;45.562;8.856;2022-10-15T04:26:27;42.92;;;27.95;;
51020;SDS011;38907;45.562;8.856;2022-10-15T04:31:29;41.60;;;28.45;;
51020;SDS011;38907;45.562;8.856;2022-10-15T04:36:32;47.55;;;29.13;;
51020;SDS011;38907;45.562;8.856;2022-10-15T04:41:34;51.95;;;29.50;;
51020;SDS011;38907;45.562;8.856;2022-10-15T04:46:36;54.47;;;31.10;;
51020;SDS011;38907;45.562;8.856;2022-10-15T04:51:40;49.67;;;30.42;;
51020;SDS011;38907;45.562;8.856;2022-10-15T04:56:42;51.30;;;29.85;;
51020;SDS011;38907;45.562;8.856;2022-10-15T05:01:43;45.85;;;28.98;;
51020;SDS011;38907;45.562;8.856;2022-10-15T05:06:47;48.42;;;30.40;;
51020;SDS011;38907;45.562;8.856;2022-10-15T05:11:49;48.75;;;28.33;;
51020;SDS011;38907;45.562;8.856;2022-10-15T05:16:51;47.38;;;29.25;;
51020;SDS011;38907;45.562;8.856;2022-10-15T05:21:54;45.17;;;27.98;;
51020;SDS011;38907;45.562;8.856;2022-10-15T05:26:56;43.83;;;24.90;;
51020;SDS011;38907;45.562;8.856;2022-10-15T05:31:58;44.42;;;27.50;;
51020;SDS011;38907;45.562;8.856;2022-10-15T05:37:01;42.60;;;27.45;;
51020;SDS011;38907;45.562;8.856;2022-10-15T05:42:03;43.92;;;28.35;;
51020;SDS011;38907;45.562;8.856;2022-10-15T05:47:05;46.40;;;28.83;;
51020;SDS011;38907;45.562;8.856;2022-10-15T05:52:12;45.30;;;27.40;;
51020;SDS011;38907;45.562;8.856;2022-10-15T05:57:14;44.22;;;27.70;;
51020;SDS011;38907;45.562;8.856;2022-10-15T06:02:15;38.33;;;25.85;;
51020;SDS011;38907;45.562;8.856;2022-10-15T06:07:19;43.38;;;25.98;;
51020;SDS011;38907;45.562;8.856;2022-10-15T06:12:21;43.30;;;27.50;;
51020;SDS011;38907;45.562;8.856;2022-10-15T06:17:22;39.85;;;26.88;;
51020;SDS011;38907;45.562;8.856;2022-10-15T06:22:26;44.22;;;27.40;;
51020;SDS011;38907;45.562;8.856;2022-10-15T06:27:30;48.95;;;28.70;;
51020;SDS011;38907;45.562;8.856;2022-10-15T06:32:32;47.03;;;27.58;;
51020;SDS011;38907;45.562;8.856;2022-10-15T06:37:36;45.80;;;28.50;;
51020;SDS011;38907;45.562;8.856;2022-10-15T06:42:38;49.25;;;29.52;;
51020;SDS011;38907;45.562;8.856;2022-10-15T06:47:40;50.53;;;30.00;;
51020;SDS011;38907;45.562;8.856;2022-10-15T06:52:43;54.00;;;31.95;;
51020;SDS011;38907;45.562;8.856;2022-10-15T06:57:46;46.22;;;28.80;;
51020;SDS011;38907;45.562;8.856;2022-10-15T07:02:49;45.67;;;29.00;;
51020;SDS011;38907;45.562;8.856;2022-10-15T07:07:52;48.60;;;29.27;;
51020;SDS011;38907;45.562;8.856;2022-10-15T07:12:54;46.80;;;29.70;;
51020;SDS011;38907;45.562;8.856;2022-10-15T07:17:59;49.67;;;29.67;;
51020;SDS011;38907;45.562;8.856;2022-10-15T07:23:02;47.90;;;28.60;;
51020;SDS011;38907;45.562;8.856;2022-10-15T07:33:06;52.47;;;31.23;;
51020;SDS011;38907;45.562;8.856;2022-10-15T07:38:09;69.80;;;43.10;;
51020;SDS011;38907;45.562;8.856;2022-10-15T07:48:14;71.68;;;44.38;;
51020;SDS011;38907;45.562;8.856;2022-10-15T07:53:17;60.15;;;38.95;;
51020;SDS011;38907;45.562;8.856;2022-10-15T07:58:20;60.80;;;36.60;;
51020;SDS011;38907;45.562;8.856;2022-10-15T08:03:22;67.35;;;36.13;;
51020;SDS011;38907;45.562;8.856;2022-10-15T08:08:25;67.63;;;38.20;;
51020;SDS011;38907;45.562;8.856;2022-10-15T08:18:29;75.50;;;42.85;;
51020;SDS011;38907;45.562;8.856;2022-10-15T08:23:32;78.53;;;45.67;;
51020;SDS011;38907;45.562;8.856;2022-10-15T08:28:35;80.22;;;45.50;;
51020;SDS011;38907;45.562;8.856;2022-10-15T08:33:37;84.32;;;46.08;;
51020;SDS011;38907;45.562;8.856;2022-10-15T08:38:41;116.78;;;58.35;;
51020;SDS011;38907;45.562;8.856;2022-10-15T08:43:43;101.65;;;51.90;;
51020;SDS011;38907;45.562;8.856;2022-10-15T08:48:50;106.68;;;56.67;;
51020;SDS011;38907;45.562;8.856;2022-10-15T08:54:08;109.82;;;55.15;;
51020;SDS011;38907;45.562;8.856;2022-10-15T08:59:19;108.30;;;53.40;;
51020;SDS011;38907;45.562;8.856;2022-10-15T09:04:34;103.68;;;54.38;;
51020;SDS011;38907;45.562;8.856;2022-10-15T09:09:46;100.18;;;53.63;;
51020;SDS011;38907;45.562;8.856;2022-10-15T09:14:52;122.90;;;55.45;;
51020;SDS011;38907;45.562;8.856;2022-10-15T09:19:57;91.57;;;51.08;;
51020;SDS011;38907;45.562;8.856;2022-10-15T09:25:12;95.90;;;52.30;;
51020;SDS011;38907;45.562;8.856;2022-10-15T09:30:21;98.95;;;51.47;;
51020;SDS011;38907;45.562;8.856;2022-10-15T09:35:33;101.47;;;51.90;;
51020;SDS011;38907;45.562;8.856;2022-10-15T09:40:47;92.95;;;49.00;;
51020;SDS011;38907;45.562;8.856;2022-10-15T09:45:59;90.07;;;51.40;;
51020;SDS011;38907;45.562;8.856;2022-10-15T09:51:02;104.80;;;50.17;;
51020;SDS011;38907;45.562;8.856;2022-10-15T09:56:14;102.18;;;52.70;;
51020;SDS011;38907;45.562;8.856;2022-10-15T10:01:18;120.72;;;56.72;;
51020;SDS011;38907;45.562;8.856;2022-10-15T10:06:22;107.20;;;55.10;;
51020;SDS011;38907;45.562;8.856;2022-10-15T10:11:26;106.35;;;55.15;;
51020;SDS011;38907;45.562;8.856;2022-10-15T10:22:17;103.40;;;55.13;;
51020;SDS011;38907;45.562;8.856;2022-10-15T10:27:22;103.40;;;54.78;;
51020;SDS011;38907;45.562;8.856;2022-10-15T11:08:02;74.95;;;44.40;;
51020;SDS011;38907;45.562;8.856;2022-10-15T11:13:15;74.47;;;42.38;;
51020;SDS011;38907;45.562;8.856;2022-10-15T11:18:33;66.95;;;40.25;;
51020;SDS011;38907;45.562;8.856;2022-10-15T11:23:59;72.55;;;41.13;;
51020;SDS011;38907;45.562;8.856;2022-10-15T11:29:10;58.63;;;34.03;;
51020;SDS011;38907;45.562;8.856;2022-10-15T11:34:22;65.13;;;39.22;;
51020;SDS011;38907;45.562;8.856;2022-10-15T11:39:40;55.03;;;35.08;;
51020;SDS011;38907;45.562;8.856;2022-10-15T11:44:54;46.60;;;31.52;;
51020;SDS011;38907;45.562;8.856;2022-10-15T11:50:18;43.97;;;28.50;;
51020;SDS011;38907;45.562;8.856;2022-10-15T11:55:30;54.05;;;33.13;;
51020;SDS011;38907;45.562;8.856;2022-10-15T12:00:40;51.05;;;31.13;;
51020;SDS011;38907;45.562;8.856;2022-10-15T12:05:47;50.55;;;31.23;;
51020;SDS011;38907;45.562;8.856;2022-10-15T12:11:01;49.38;;;30.02;;
51020;SDS011;38907;45.562;8.856;2022-10-15T12:16:11;41.67;;;29.80;;
51020;SDS011;38907;45.562;8.856;2022-10-15T12:21:30;41.50;;;27.48;;
51020;SDS011;38907;45.562;8.856;2022-10-15T12:26:36;50.80;;;27.75;;
51020;SDS011;38907;45.562;8.856;2022-10-15T12:31:44;31.55;;;21.45;;
51020;SDS011;38907;45.562;8.856;2022-10-15T12:36:49;32.10;;;22.67;;
51020;SDS011;38907;45.562;8.856;2022-10-15T12:42:01;28.98;;;20.30;;
51020;SDS011;38907;45.562;8.856;2022-10-15T12:47:03;30.73;;;22.13;;
51020;SDS011;38907;45.562;8.856;2022-10-15T13:08:31;16.50;;;13.10;;
51020;SDS011;38907;45.562;8.856;2022-10-15T13:13:35;14.67;;;8.80;;
51020;SDS011;38907;45.562;8.856;2022-10-15T13:18:37;20.30;;;12.52;;
51020;SDS011;38907;45.562;8.856;2022-10-15T13:23:43;20.17;;;13.55;;
51020;SDS011;38907;45.562;8.856;2022-10-15T13:28:49;21.10;;;13.65;;
51020;SDS011;38907;45.562;8.856;2022-10-15T13:33:54;20.42;;;14.32;;
51020;SDS011;38907;45.562;8.856;2022-10-15T13:39:01;20.77;;;13.27;;
51020;SDS011;38907;45.562;8.856;2022-10-15T13:44:16;17.55;;;11.88;;
51020;SDS011;38907;45.562;8.856;2022-10-15T13:49:21;15.88;;;10.55;;
51020;SDS011;38907;45.562;8.856;2022-10-15T13:54:24;17.17;;;12.53;;
51020;SDS011;38907;45.562;8.856;2022-10-15T13:59:30;17.15;;;12.98;;
51020;SDS011;38907;45.562;8.856;2022-10-15T14:04:32;17.70;;;11.45;;
51020;SDS011;38907;45.562;8.856;2022-10-15T14:09:34;14.60;;;10.50;;
51020;SDS011;38907;45.562;8.856;2022-10-15T14:14:40;15.40;;;9.45;;
51020;SDS011;38907;45.562;8.856;2022-10-15T14:19:46;11.18;;;9.85;;
51020;SDS011;38907;45.562;8.856;2022-10-15T14:24:51;15.15;;;10.55;;
51020;SDS011;38907;45.562;8.856;2022-10-15T14:29:56;15.88;;;12.13;;
51020;SDS011;38907;45.562;8.856;2022-10-15T14:35:00;17.95;;;13.27;;
51020;SDS011;38907;45.562;8.856;2022-10-15T14:40:11;25.77;;;18.88;;
51020;SDS011;38907;45.562;8.856;2022-10-15T14:45:25;31.00;;;19.00;;
51020;SDS011;38907;45.562;8.856;2022-10-15T14:50:29;25.42;;;17.65;;
51020;SDS011;38907;45.562;8.856;2022-10-15T14:55:33;30.13;;;16.65;;
51020;SDS011;38907;45.562;8.856;2022-10-15T15:00:41;27.50;;;15.45;;
51020;SDS011;38907;45.562;8.856;2022-10-15T15:05:45;23.05;;;13.00;;
51020;SDS011;38907;45.562;8.856;2022-10-15T15:10:48;24.88;;;17.42;;
51020;SDS011;38907;45.562;8.856;2022-10-15T15:15:53;30.80;;;17.92;;
51020;SDS011;38907;45.562;8.856;2022-10-15T15:20:56;26.42;;;19.58;;
51020;SDS011;38907;45.562;8.856;2022-10-15T15:26:02;28.75;;;19.13;;
51020;SDS011;38907;45.562;8.856;2022-10-15T15:31:13;33.33;;;21.63;;
51020;SDS011;38907;45.562;8.856;2022-10-15T15:36:17;35.15;;;23.98;;
51020;SDS011;38907;45.562;8.856;2022-10-15T15:41:20;41.63;;;24.67;;
51020;SDS011;38907;45.562;8.856;2022-10-15T15:46:24;39.13;;;24.70;;
51020;SDS011;38907;45.562;8.856;2022-10-15T15:51:27;33.80;;;23.02;;
51020;SDS011;38907;45.562;8.856;2022-10-15T15:56:31;33.53;;;24.80;;
51020;SDS011;38907;45.562;8.856;2022-10-15T16:01:35;32.50;;;21.40;;
51020;SDS011;38907;45.562;8.856;2022-10-15T16:06:37;38.22;;;22.40;;
51020;SDS011;38907;45.562;8.856;2022-10-15T16:11:39;38.00;;;24.00;;
51020;SDS011;38907;45.562;8.856;2022-10-15T16:16:42;35.53;;;22.95;;
51020;SDS011;38907;45.562;8.856;2022-10-15T16:21:44;39.25;;;23.00;;
51020;SDS011;38907;45.562;8.856;2022-10-15T16:26:46;34.53;;;24.85;;
51020;SDS011;38907;45.562;8.856;2022-10-15T16:31:49;43.20;;;26.07;;
51020;SDS011;38907;45.562;8.856;2022-10-15T16:36:51;38.28;;;24.17;;
51020;SDS011;38907;45.562;8.856;2022-10-15T16:41:53;38.97;;;25.67;;
51020;SDS011;38907;45.562;8.856;2022-10-15T16:46:56;39.03;;;25.85;;
51020;SDS011;38907;45.562;8.856;2022-10-15T16:51:58;37.33;;;22.08;;
51020;SDS011;38907;45.562;8.856;2022-10-15T16:57:00;31.88;;;20.58;;
51020;SDS011;38907;45.562;8.856;2022-10-15T17:02:03;33.47;;;20.88;;
51020;SDS011;38907;45.562;8.856;2022-10-15T17:07:06;31.85;;;20.88;;
51020;SDS011;38907;45.562;8.856;2022-10-15T17:12:08;31.52;;;22.70;;
51020;SDS011;38907;45.562;8.856;2022-10-15T17:17:11;34.55;;;22.80;;
51020;SDS011;38907;45.562;8.856;2022-10-15T17:22:13;34.97;;;22.75;;
51020;SDS011;38907;45.562;8.856;2022-10-15T17:27:16;35.05;;;23.25;;
51020;SDS011;38907;45.562;8.856;2022-10-15T17:32:19;36.47;;;22.98;;
51020;SDS011;38907;45.562;8.856;2022-10-15T17:37:21;36.38;;;23.88;;
51020;SDS011;38907;45.562;8.856;2022-10-15T17:42:23;36.63;;;25.40;;
51020;SDS011;38907;45.562;8.856;2022-10-15T17:47:26;40.15;;;25.75;;
51020;SDS011;38907;45.562;8.856;2022-10-15T17:52:28;44.85;;;25.67;;
51020;SDS011;38907;45.562;8.856;2022-10-15T17:57:31;37.53;;;25.77;;
51020;SDS011;38907;45.562;8.856;2022-10-15T18:02:34;48.30;;;31.83;;
51020;SDS011;38907;45.562;8.856;2022-10-15T18:07:36;45.05;;;29.58;;
51020;SDS011;38907;45.562;8.856;2022-10-15T18:12:38;49.38;;;28.65;;
51020;SDS011;38907;45.562;8.856;2022-10-15T18:17:41;44.65;;;29.92;;
51020;SDS011;38907;45.562;8.856;2022-10-15T18:22:44;55.15;;;34.63;;
51020;SDS011;38907;45.562;8.856;2022-10-15T18:27:46;47.88;;;33.47;;
51020;SDS011;38907;45.562;8.856;2022-10-15T18:32:49;55.83;;;31.98;;
51020;SDS011;38907;45.562;8.856;2022-10-15T18:37:51;50.35;;;30.60;;
51020;SDS011;38907;45.562;8.856;2022-10-15T18:42:53;47.03;;;30.33;;
51020;SDS011;38907;45.562;8.856;2022-10-15T18:47:56;48.53;;;30.88;;
51020;SDS011;38907;45.562;8.856;2022-10-15T18:52:58;49.03;;;32.05;;
51020;SDS011;38907;45.562;8.856;2022-10-15T18:58:02;46.40;;;29.98;;
51020;SDS011;38907;45.562;8.856;2022-10-15T19:03:07;45.80;;;30.90;;
51020;SDS011;38907;45.562;8.856;2022-10-15T19:08:10;50.20;;;31.63;;
51020;SDS011;38907;45.562;8.856;2022-10-15T19:13:12;42.17;;;28.83;;
51020;SDS011;38907;45.562;8.856;2022-10-15T19:18:17;41.05;;;29.80;;
51020;SDS011;38907;45.562;8.856;2022-10-15T19:23:20;43.17;;;30.45;;
51020;SDS011;38907;45.562;8.856;2022-10-15T19:28:22;43.38;;;29.40;;
51020;SDS011;38907;45.562;8.856;2022-10-15T19:33:28;48.25;;;30.13;;
51020;SDS011;38907;45.562;8.856;2022-10-15T19:38:31;42.25;;;29.23;;
51020;SDS011;38907;45.562;8.856;2022-10-15T19:43:34;51.60;;;31.83;;
51020;SDS011;38907;45.562;8.856;2022-10-15T19:48:38;47.55;;;31.60;;
51020;SDS011;38907;45.562;8.856;2022-10-15T19:53:40;50.67;;;34.50;;
51020;SDS011;38907;45.562;8.856;2022-10-15T19:58:42;51.47;;;33.08;;
51020;SDS011;38907;45.562;8.856;2022-10-15T20:08:49;47.93;;;32.60;;
51020;SDS011;38907;45.562;8.856;2022-10-15T20:13:52;48.00;;;32.65;;
51020;SDS011;38907;45.562;8.856;2022-10-15T20:18:59;57.03;;;34.97;;
51020;SDS011;38907;45.562;8.856;2022-10-15T20:24:02;56.22;;;36.55;;
51020;SDS011;38907;45.562;8.856;2022-10-15T20:29:05;69.37;;;35.80;;
51020;SDS011;38907;45.562;8.856;2022-10-15T20:34:09;50.58;;;33.33;;
51020;SDS011;38907;45.562;8.856;2022-10-15T20:39:11;48.70;;;32.80;;
51020;SDS011;38907;45.562;8.856;2022-10-15T20:44:14;45.83;;;32.53;;
51020;SDS011;38907;45.562;8.856;2022-10-15T20:49:19;46.08;;;32.72;;
51020;SDS011;38907;45.562;8.856;2022-10-15T20:54:24;47.08;;;31.17;;
51020;SDS011;38907;45.562;8.856;2022-10-15T20:59:26;48.05;;;30.45;;
51020;SDS011;38907;45.562;8.856;2022-10-15T21:04:30;48.85;;;31.30;;
51020;SDS011;38907;45.562;8.856;2022-10-15T21:09:32;44.95;;;31.58;;
51020;SDS011;38907;45.562;8.856;2022-10-15T21:14:34;47.58;;;31.02;;
51020;SDS011;38907;45.562;8.856;2022-10-15T21:19:38;46.33;;;29.35;;
51020;SDS011;38907;45.562;8.856;2022-10-15T21:24:40;38.25;;;27.83;;
51020;SDS011;38907;45.562;8.856;2022-10-15T21:29:42;43.40;;;29.85;;
51020;SDS011;38907;45.562;8.856;2022-10-15T21:34:46;39.28;;;28.48;;
51020;SDS011;38907;45.562;8.856;2022-10-15T21:39:48;35.40;;;27.13;;
51020;SDS011;38907;45.562;8.856;2022-10-15T21:44:51;38.50;;;27.00;;
51020;SDS011;38907;45.562;8.856;2022-10-15T21:49:54;41.38;;;29.52;;
51020;SDS011;38907;45.562;8.856;2022-10-15T21:54:56;40.00;;;28.13;;
51020;SDS011;38907;45.562;8.856;2022-10-15T21:59:58;40.00;;;27.63;;
51020;SDS011;38907;45.562;8.856;2022-10-15T22:05:01;39.57;;;27.07;;
51020;SDS011;38907;45.562;8.856;2022-10-15T22:10:03;38.78;;;26.98;;
51020;SDS011;38907;45.562;8.856;2022-10-15T22:15:06;42.30;;;27.45;;
51020;SDS011;38907;45.562;8.856;2022-10-15T22:20:10;45.47;;;27.50;;
51020;SDS011;38907;45.562;8.856;2022-10-15T22:25:12;40.33;;;27.52;;
51020;SDS011;38907;45.562;8.856;2022-10-15T22:30:14;33.20;;;26.10;;
51020;SDS011;38907;45.562;8.856;2022-10-15T22:35:17;38.90;;;28.77;;
51020;SDS011;38907;45.562;8.856;2022-10-15T22:40:20;44.53;;;26.35;;
51020;SDS011;38907;45.562;8.856;2022-10-15T22:45:23;34.83;;;26.83;;
51020;SDS011;38907;45.562;8.856;2022-10-15T22:50:26;39.45;;;27.17;;
51020;SDS011;38907;45.562;8.856;2022-10-15T22:55:28;38.45;;;27.98;;
51020;SDS011;38907;45.562;8.856;2022-10-15T23:00:30;39.60;;;27.30;;
51020;SDS011;38907;45.562;8.856;2022-10-15T23:05:33;37.35;;;27.55;;
51020;SDS011;38907;45.562;8.856;2022-10-15T23:10:35;37.78;;;26.75;;
51020;SDS011;38907;45.562;8.856;2022-10-15T23:15:37;40.05;;;27.25;;
51020;SDS011;38907;45.562;8.856;2022-10-15T23:20:41;37.53;;;26.52;;
51020;SDS011;38907;45.562;8.856;2022-10-15T23:25:43;36.80;;;26.58;;
51020;SDS011;38907;45.562;8.856;2022-10-15T23:30:44;37.92;;;26.27;;
51020;SDS011;38907;45.562;8.856;2022-10-15T23:35:55;39.90;;;26.73;;
51020;SDS011;38907;45.562;8.856;2022-10-15T23:40:59;35.50;;;25.83;;
51020;SDS011;38907;45.562;8.856;2022-10-15T23:46:01;39.42;;;27.08;;
51020;SDS011;38907;45.562;8.856;2022-10-15T23:51:11;34.33;;;25.53;;
51020;SDS011;38907;45.562;8.856;2022-10-15T23:56:13;36.97;;;26.83;;
